createdAt,value
2022-11-05T00:00:35.219Z,95743.63
2022-11-05T00:03:20.582Z,95757.19
2022-11-05T00:06:09.444Z,95751.22
2022-11-05T00:08:55.141Z,95759.19
2022-11-05T00:11:41.703Z,95758.44
2022-11-05T00:14:27.165Z,95761.91
2022-11-05T00:16:53.498Z,95756.84
2022-11-05T00:19:19.800Z,95752.91
2022-11-05T00:22:04.933Z,95759.38
2022-11-05T00:24:49.769Z,95765.00
2022-11-05T00:27:16.596Z,95756.66
2022-11-05T00:29:42.909Z,95771.09
2022-11-05T00:32:09.375Z,95775.84
2022-11-05T00:34:36.212Z,95774.34
2022-11-05T00:37:02.534Z,95782.09
2022-11-05T00:39:28.837Z,95787.97
2022-11-05T00:42:14.142Z,95798.19
2022-11-05T00:44:59.367Z,95792.56
2022-11-05T00:47:44.082Z,95795.84
2022-11-05T00:50:11.964Z,95801.53
2022-11-05T00:52:58.213Z,95787.19
2022-11-05T00:55:43.288Z,95804.50
2022-11-05T00:58:12.119Z,95814.53
2022-11-05T01:00:41.692Z,95819.47
2022-11-05T01:03:11.381Z,95814.53
2022-11-05T01:05:40.613Z,95821.66
2022-11-05T01:08:07.742Z,95823.81
2022-11-05T01:10:34.509Z,95820.16
2022-11-05T01:13:00.898Z,95823.06
2022-11-05T01:15:27.601Z,95829.09
2022-11-05T01:17:53.966Z,95829.50
2022-11-05T01:20:20.301Z,95826.81
2022-11-05T01:22:47.143Z,95827.81
2022-11-05T01:25:13.462Z,95834.81
2022-11-05T01:27:39.900Z,95841.00
2022-11-05T01:30:09.202Z,95851.19
2022-11-05T01:32:36.735Z,95854.47
2022-11-05T01:35:08.120Z,95850.81
2022-11-05T01:37:35.706Z,95856.97
2022-11-05T01:40:02.509Z,95850.91
2022-11-05T01:42:32.011Z,95859.88
2022-11-05T01:45:01.925Z,95857.44
2022-11-05T01:47:32.267Z,95853.44
2022-11-05T01:50:03.365Z,95853.50
2022-11-05T01:52:32.285Z,95854.72
2022-11-05T01:54:59.068Z,95851.47
2022-11-05T01:57:27.193Z,95855.50
2022-11-05T01:59:58.416Z,95860.69
2022-11-05T02:02:25.460Z,95850.97
2022-11-05T02:04:57.364Z,95857.03
2022-11-05T02:07:26.774Z,95850.56
2022-11-05T02:09:56.961Z,95853.66
2022-11-05T02:12:24.061Z,95854.72
2022-11-05T02:14:50.416Z,95858.16
2022-11-05T02:17:51.219Z,95855.47
2022-11-05T02:20:35.934Z,95858.88
2022-11-05T02:23:34.802Z,95846.13
2022-11-05T02:26:16.326Z,95841.34
2022-11-05T02:28:55.194Z,95844.31
2022-11-05T02:31:30.561Z,95853.22
2022-11-05T02:34:16.138Z,95850.78
2022-11-05T02:37:07.789Z,95856.59
2022-11-05T02:39:55.613Z,95863.72
2022-11-05T02:42:31.062Z,95863.88
2022-11-05T02:45:24.802Z,95868.69
2022-11-05T02:48:07.957Z,95873.63
2022-11-05T02:50:53.242Z,95871.63
2022-11-05T02:53:28.654Z,95872.00
2022-11-05T02:56:07.353Z,95869.16
2022-11-05T02:58:35.118Z,95865.03
2022-11-05T03:01:06.634Z,95862.75
2022-11-05T03:03:38.535Z,95874.50
2022-11-05T03:06:33.902Z,95865.66
2022-11-05T03:09:21.640Z,95868.22
2022-11-05T03:12:09.321Z,95876.94
2022-11-05T03:14:56.349Z,95875.56
2022-11-05T03:17:43.741Z,95877.66
2022-11-05T03:20:21.742Z,95873.19
2022-11-05T03:23:01.509Z,95883.06
2022-11-05T03:25:30.222Z,95880.84
2022-11-05T03:28:02.747Z,95883.59
2022-11-05T03:30:33.049Z,95878.00
2022-11-05T03:33:05.610Z,95886.28
2022-11-05T03:35:38.002Z,95896.66
2022-11-05T03:38:10.154Z,95888.91
2022-11-05T03:40:38.938Z,95890.50
2022-11-05T03:43:08.135Z,95890.72
2022-11-05T03:46:00.618Z,95896.28
2022-11-05T03:48:30.174Z,95897.69
2022-11-05T03:51:08.426Z,95907.47
2022-11-05T03:53:48.025Z,95912.19
2022-11-05T03:56:22.959Z,95912.84
2022-11-05T03:58:52.288Z,95915.91
2022-11-05T04:01:21.268Z,95919.66
2022-11-05T04:03:48.002Z,95919.84
2022-11-05T04:06:32.937Z,95921.28
2022-11-05T04:09:18.149Z,95931.97
2022-11-05T04:12:02.873Z,95925.72
2022-11-05T04:14:31.028Z,95930.19
2022-11-05T04:17:09.892Z,95929.13
2022-11-05T04:20:01.040Z,95932.59
2022-11-05T04:22:48.306Z,95932.22
2022-11-05T04:25:16.619Z,95928.19
2022-11-05T04:27:43.932Z,95935.22
2022-11-05T04:30:20.656Z,95937.25
2022-11-05T04:33:05.264Z,95944.13
2022-11-05T04:35:41.253Z,95952.03
2022-11-05T04:38:10.135Z,95947.53
2022-11-05T04:40:37.222Z,95945.28
2022-11-05T04:43:06.545Z,95939.34
2022-11-05T04:45:36.617Z,95948.88
2022-11-05T04:48:05.318Z,95941.94
2022-11-05T04:50:32.870Z,95952.06
2022-11-05T04:52:59.310Z,95949.03
2022-11-05T04:55:26.419Z,95958.34
2022-11-05T04:57:54.342Z,95956.34
2022-11-05T05:00:22.317Z,95957.84
2022-11-05T05:02:49.288Z,95967.28
2022-11-05T05:05:16.212Z,95974.78
2022-11-05T05:07:43.125Z,95977.78
2022-11-05T05:10:10.793Z,95970.50
2022-11-05T05:12:37.179Z,95970.91
2022-11-05T05:15:04.142Z,95979.25
2022-11-05T05:17:31.021Z,95974.41
2022-11-05T05:20:16.025Z,95976.28
2022-11-05T05:22:42.727Z,95973.09
2022-11-05T05:25:09.297Z,95980.38
2022-11-05T05:27:35.621Z,95977.81
2022-11-05T05:30:02.914Z,95985.63
2022-11-05T05:32:29.226Z,95980.13
2022-11-05T05:34:55.671Z,95983.69
2022-11-05T05:37:22.447Z,95994.16
2022-11-05T05:39:49.673Z,95986.56
2022-11-05T05:42:16.065Z,95997.66
2022-11-05T05:44:42.851Z,95997.19
2022-11-05T05:47:09.368Z,95993.75
2022-11-05T05:49:35.696Z,96008.22
2022-11-05T05:52:02.474Z,95995.38
2022-11-05T05:54:32.314Z,96003.66
2022-11-05T05:57:00.285Z,96005.28
2022-11-05T05:59:26.616Z,96002.94
2022-11-05T06:01:53.833Z,96012.22
2022-11-05T06:04:20.629Z,96019.75
2022-11-05T06:06:46.997Z,96022.38
2022-11-05T06:09:14.671Z,96023.66
2022-11-05T06:11:41.525Z,96027.50
2022-11-05T06:14:12.838Z,96031.78
2022-11-05T06:16:40.075Z,96040.28
2022-11-05T06:19:07.370Z,96038.72
2022-11-05T06:21:34.109Z,96042.44
2022-11-05T06:24:02.199Z,96051.75
2022-11-05T06:26:29.058Z,96047.03
2022-11-05T06:28:55.849Z,96045.28
2022-11-05T06:31:22.251Z,96045.00
2022-11-05T06:33:48.766Z,96051.16
2022-11-05T06:36:17.246Z,96053.03
2022-11-05T06:38:43.943Z,96054.22
2022-11-05T06:41:10.949Z,96051.75
2022-11-05T06:43:38.302Z,96067.25
2022-11-05T06:46:05.223Z,96062.72
2022-11-05T06:48:31.801Z,96068.59
2022-11-05T06:50:58.770Z,96074.38
2022-11-05T06:53:25.209Z,96075.69
2022-11-05T06:55:51.619Z,96083.03
2022-11-05T06:58:18.535Z,96083.03
2022-11-05T07:00:45.283Z,96084.84
2022-11-05T07:03:12.889Z,96088.09
2022-11-05T07:05:46.896Z,96099.63
2022-11-05T07:08:13.371Z,96111.63
2022-11-05T07:10:39.764Z,96102.47
2022-11-05T07:13:08.426Z,96106.50
2022-11-05T07:15:35.604Z,96114.00
2022-11-05T07:18:02.657Z,96122.06
2022-11-05T07:20:33.585Z,96128.94
2022-11-05T07:23:05.805Z,96132.69
2022-11-05T07:25:33.399Z,96135.91
2022-11-05T07:28:00.262Z,96134.28
2022-11-05T07:30:27.537Z,96134.22
2022-11-05T07:32:53.938Z,96134.78
2022-11-05T07:35:20.399Z,96140.75
2022-11-05T07:37:49.697Z,96149.81
2022-11-05T07:40:20.907Z,96137.53
2022-11-05T07:42:50.425Z,96151.50
2022-11-05T07:45:17.118Z,96155.75
2022-11-05T07:47:52.812Z,96152.78
2022-11-05T07:50:21.716Z,96148.81
2022-11-05T07:52:48.870Z,96157.00
2022-11-05T07:55:18.665Z,96152.06
2022-11-05T07:57:47.748Z,96160.88
2022-11-05T08:00:17.145Z,96160.69
2022-11-05T08:02:44.540Z,96169.88
2022-11-05T08:05:11.139Z,96167.78
2022-11-05T08:07:37.489Z,96172.25
2022-11-05T08:10:04.975Z,96177.22
2022-11-05T08:12:32.416Z,96179.47
2022-11-05T08:14:58.823Z,96177.47
2022-11-05T08:17:25.573Z,96180.00
2022-11-05T08:19:51.923Z,96176.56
2022-11-05T08:22:18.349Z,96182.38
2022-11-05T08:24:45.101Z,96186.88
2022-11-05T08:27:11.424Z,96176.16
2022-11-05T08:29:37.748Z,96181.44
2022-11-05T08:32:04.580Z,96180.41
2022-11-05T08:34:30.928Z,96188.44
2022-11-05T08:36:57.346Z,96194.78
2022-11-05T08:39:24.164Z,96189.13
2022-11-05T08:41:50.699Z,96186.88
2022-11-05T08:44:17.307Z,96192.19
2022-11-05T08:46:44.296Z,96197.28
2022-11-05T08:49:10.757Z,96196.78
2022-11-05T08:51:37.082Z,96204.75
2022-11-05T08:54:04.257Z,96198.00
2022-11-05T08:56:30.650Z,96200.53
2022-11-05T08:58:56.950Z,96202.22
2022-11-05T09:01:23.911Z,96208.59
2022-11-05T09:03:51.800Z,96211.03
2022-11-05T09:06:22.570Z,96203.69
2022-11-05T09:08:49.249Z,96205.72
2022-11-05T09:11:15.600Z,96207.16
2022-11-05T09:13:42.286Z,96209.97
2022-11-05T09:16:18.700Z,96218.13
2022-11-05T09:18:45.041Z,96221.75
2022-11-05T09:21:11.373Z,96222.41
2022-11-05T09:23:38.131Z,96222.22
2022-11-05T09:26:05.246Z,96227.28
2022-11-05T09:28:32.330Z,96223.56
2022-11-05T09:30:58.644Z,96223.34
2022-11-05T09:33:27.139Z,96226.22
2022-11-05T09:35:53.710Z,96227.28
2022-11-05T09:38:20.174Z,96230.13
2022-11-05T09:41:01.161Z,96235.19
2022-11-05T09:43:33.645Z,96230.34
2022-11-05T09:46:09.907Z,96231.75
2022-11-05T09:48:38.650Z,96230.28
2022-11-05T09:51:05.976Z,96242.78
2022-11-05T09:53:34.955Z,96241.34
2022-11-05T09:56:01.453Z,96237.66
2022-11-05T09:59:00.583Z,96242.94
2022-11-05T10:01:33.309Z,96242.91
2022-11-05T10:04:06.418Z,96252.69
2022-11-05T10:06:33.021Z,96246.81
2022-11-05T10:09:09.458Z,96248.69
2022-11-05T10:11:43.689Z,96250.03
2022-11-05T10:14:17.199Z,96253.75
2022-11-05T10:16:50.173Z,96256.34
2022-11-05T10:19:24.725Z,96255.84
2022-11-05T10:22:06.704Z,96257.84
2022-11-05T10:24:34.322Z,96253.91
2022-11-05T10:27:01.403Z,96237.78
2022-11-05T10:29:32.249Z,96244.94
2022-11-05T10:32:01.630Z,96253.56
2022-11-05T10:34:33.520Z,96253.19
2022-11-05T10:37:00.685Z,96249.72
2022-11-05T10:39:29.608Z,96256.03
2022-11-05T10:42:11.684Z,96256.88
2022-11-05T10:44:53.554Z,96260.47
2022-11-05T10:47:41.556Z,96258.06
2022-11-05T10:50:17.123Z,96251.84
2022-11-05T10:52:58.360Z,96252.66
2022-11-05T10:55:27.306Z,96251.31
2022-11-05T10:57:54.373Z,96258.13
2022-11-05T11:00:24.614Z,96263.25
2022-11-05T11:03:04.309Z,96260.66
2022-11-05T11:05:32.598Z,96259.59
2022-11-05T11:08:13.327Z,96256.00
2022-11-05T11:10:47.750Z,96266.16
2022-11-05T11:13:40.713Z,96258.34
2022-11-05T11:16:21.606Z,96272.34
2022-11-05T11:18:53.945Z,96270.69
2022-11-05T11:21:23.075Z,96273.69
2022-11-05T11:23:59.054Z,96275.78
2022-11-05T11:26:28.977Z,96276.97
2022-11-05T11:29:28.424Z,96276.38
2022-11-05T11:31:56.803Z,96281.81
2022-11-05T11:34:30.205Z,96287.63
2022-11-05T11:37:07.854Z,96281.09
2022-11-05T11:39:35.509Z,96281.13
2022-11-05T11:42:09.095Z,96282.47
2022-11-05T11:44:44.961Z,96282.47
2022-11-05T11:47:17.819Z,96274.13
2022-11-05T11:50:03.475Z,96280.47
2022-11-05T11:52:37.293Z,96284.19
2022-11-05T11:55:13.600Z,96292.53
2022-11-05T11:57:51.718Z,96294.91
2022-11-05T12:00:20.377Z,96309.25
2022-11-05T12:02:50.112Z,96300.09
2022-11-05T12:05:41.739Z,96301.13
2022-11-05T12:08:45.652Z,96312.34
2022-11-05T12:11:24.344Z,96312.31
2022-11-05T12:14:02.541Z,96307.44
2022-11-05T12:16:35.738Z,96306.81
2022-11-05T12:19:23.237Z,96314.38
2022-11-05T12:22:08.045Z,96311.94
2022-11-05T12:25:21.081Z,96312.53
2022-11-05T12:28:15.474Z,96315.19
2022-11-05T12:30:51.329Z,96311.09
2022-11-05T12:33:28.884Z,96310.69
2022-11-05T12:36:00.701Z,96313.75
2022-11-05T12:38:45.773Z,96320.47
2022-11-05T12:41:34.261Z,96321.94
2022-11-05T12:44:34.893Z,96318.06
2022-11-05T12:47:04.838Z,96317.22
2022-11-05T12:49:38.411Z,96327.03
2022-11-05T12:52:14.385Z,96321.94
2022-11-05T12:54:52.981Z,96321.31
2022-11-05T12:57:22.935Z,96323.91
2022-11-05T13:00:18.863Z,96331.06
2022-11-05T13:02:55.005Z,96324.16
2022-11-05T13:05:34.124Z,96320.50
2022-11-05T13:08:10.688Z,96324.56
2022-11-05T13:10:44.726Z,96320.09
2022-11-05T13:13:23.262Z,96323.75
2022-11-05T13:15:54.222Z,96325.38
2022-11-05T13:18:42.006Z,96330.88
2022-11-05T13:21:10.307Z,96331.13
2022-11-05T13:23:49.450Z,96331.50
2022-11-05T13:26:23.779Z,96324.16
2022-11-05T13:29:04.662Z,96340.06
2022-11-05T13:31:36.852Z,96332.94
2022-11-05T13:34:09.925Z,96325.38
2022-11-05T13:37:10.332Z,96320.69
2022-11-05T13:39:53.840Z,96323.38
2022-11-05T13:42:39.888Z,96331.91
2022-11-05T13:45:28.146Z,96330.28
2022-11-05T13:48:13.288Z,96332.72
2022-11-05T13:51:02.192Z,96340.88
2022-11-05T13:53:55.682Z,96334.13
2022-11-05T13:56:37.384Z,96333.72
2022-11-05T13:59:34.250Z,96342.91
2022-11-05T14:02:10.744Z,96341.44
2022-11-05T14:04:43.863Z,96346.91
2022-11-05T14:07:18.727Z,96350.00
2022-11-05T14:09:45.989Z,96344.09
2022-11-05T14:12:27.744Z,96351.81
2022-11-05T14:15:02.934Z,96360.38
2022-11-05T14:17:52.301Z,96359.97
2022-11-05T14:20:31.281Z,96356.31
2022-11-05T14:23:26.315Z,96352.19
2022-11-05T14:26:14.373Z,96344.78
2022-11-05T14:28:45.066Z,96354.16
2022-11-05T14:31:47.388Z,96348.19
2022-11-05T14:34:13.522Z,96360.22
2022-11-05T14:36:44.679Z,96353.09
2022-11-05T14:39:28.426Z,96354.34
2022-11-05T14:41:56.706Z,96345.69
2022-11-05T14:44:25.021Z,96361.75
2022-11-05T14:46:55.080Z,96348.34
2022-11-05T14:49:26.628Z,96354.63
2022-11-05T14:51:57.099Z,96356.22
2022-11-05T14:54:25.789Z,96355.00
2022-11-05T14:56:57.142Z,96358.44
2022-11-05T14:59:23.777Z,96363.75
2022-11-05T15:01:50.126Z,96374.13
2022-11-05T15:04:30.726Z,96369.66
2022-11-05T15:07:03.028Z,96375.94
2022-11-05T15:09:39.030Z,96372.03
2022-11-05T15:12:05.466Z,96377.56
2022-11-05T15:14:37.850Z,96374.19
2022-11-05T15:17:16.252Z,96376.00
2022-11-05T15:19:43.599Z,96364.03
2022-11-05T15:22:32.521Z,96365.66
2022-11-05T15:24:59.168Z,96378.09
2022-11-05T15:27:25.463Z,96371.53
2022-11-05T15:29:52.354Z,96375.13
2022-11-05T15:32:23.349Z,96381.09
2022-11-05T15:34:55.253Z,96387.19
2022-11-05T15:37:25.393Z,96389.25
2022-11-05T15:39:54.001Z,96381.09
2022-11-05T15:42:26.570Z,96395.34
2022-11-05T15:44:55.442Z,96393.34
2022-11-05T15:47:21.726Z,96396.19
2022-11-05T15:49:54.486Z,96395.75
2022-11-05T15:52:54.648Z,96395.66
2022-11-05T15:55:26.605Z,96399.94
2022-11-05T15:58:00.106Z,96394.88
2022-11-05T16:00:29.816Z,96413.63
2022-11-05T16:03:00.443Z,96415.53
2022-11-05T16:05:31.411Z,96412.69
2022-11-05T16:07:59.911Z,96417.22
2022-11-05T16:10:31.200Z,96411.88
2022-11-05T16:12:57.564Z,96414.41
2022-11-05T16:15:29.339Z,96423.03
2022-11-05T16:17:59.010Z,96425.66
2022-11-05T16:20:35.596Z,96427.41
2022-11-05T16:23:22.080Z,96426.81
2022-11-05T16:25:48.521Z,96423.41
2022-11-05T16:28:30.346Z,96428.44
2022-11-05T16:31:04.496Z,96438.28
2022-11-05T16:33:40.775Z,96437.63
2022-11-05T16:36:08.637Z,96434.97
2022-11-05T16:38:35.040Z,96442.09
2022-11-05T16:41:01.846Z,96445.69
2022-11-05T16:43:28.209Z,96438.72
2022-11-05T16:45:57.937Z,96437.25
2022-11-05T16:48:25.704Z,96438.03
2022-11-05T16:50:52.260Z,96440.53
2022-11-05T16:53:18.626Z,96455.41
2022-11-05T16:55:46.552Z,96451.00
2022-11-05T16:58:22.169Z,96451.44
2022-11-05T17:00:51.096Z,96449.41
2022-11-05T17:03:17.773Z,96449.34
2022-11-05T17:05:44.940Z,96461.13
2022-11-05T17:08:11.684Z,96453.38
2022-11-05T17:10:38.305Z,96464.44
2022-11-05T17:13:05.022Z,96466.19
2022-11-05T17:15:35.324Z,96460.44
2022-11-05T17:18:03.436Z,96464.44
2022-11-05T17:20:56.547Z,96468.84
2022-11-05T17:23:26.641Z,96471.78
2022-11-05T17:25:56.356Z,96462.13
2022-11-05T17:28:23.295Z,96464.41
2022-11-05T17:30:52.967Z,96474.56
2022-11-05T17:33:20.870Z,96477.94
2022-11-05T17:35:47.803Z,96484.47
2022-11-05T17:38:14.814Z,96490.31
2022-11-05T17:40:41.742Z,96502.59
2022-11-05T17:43:09.388Z,96489.41
2022-11-05T17:45:41.744Z,96488.69
2022-11-05T17:48:09.622Z,96467.56
2022-11-05T17:50:40.576Z,96489.50
2022-11-05T17:53:07.412Z,96493.50
2022-11-05T17:55:34.198Z,96498.66
2022-11-05T17:58:00.629Z,96500.19
2022-11-05T18:00:27.883Z,96514.50
2022-11-05T18:02:54.505Z,96500.91
2022-11-05T18:05:22.270Z,96515.28
2022-11-05T18:07:49.969Z,96515.47
2022-11-05T18:10:16.546Z,96508.22
2022-11-05T18:12:43.340Z,96511.84
2022-11-05T18:15:10.245Z,96520.22
2022-11-05T18:17:37.088Z,96520.41
2022-11-05T18:20:10.649Z,96525.50
2022-11-05T18:22:40.877Z,96529.97
2022-11-05T18:25:08.742Z,96522.69
2022-11-05T18:27:35.500Z,96523.53
2022-11-05T18:30:02.089Z,96522.88
2022-11-05T18:32:28.425Z,96522.56
2022-11-05T18:34:54.770Z,96531.63
2022-11-05T18:37:21.304Z,96517.44
2022-11-05T18:39:51.169Z,96526.03
2022-11-05T18:42:18.136Z,96522.91
2022-11-05T18:44:44.967Z,96521.75
2022-11-05T18:47:11.825Z,96520.22
2022-11-05T18:49:38.176Z,96524.72
2022-11-05T18:52:05.463Z,96529.28
2022-11-05T18:54:31.885Z,96523.84
2022-11-05T18:56:58.507Z,96530.91
2022-11-05T18:59:40.678Z,96525.19
2022-11-05T19:02:08.784Z,96530.91
2022-11-05T19:04:36.935Z,96535.94
2022-11-05T19:07:05.435Z,96532.34
2022-11-05T19:09:36.682Z,96515.81
2022-11-05T19:12:04.427Z,96521.88
2022-11-05T19:14:31.173Z,96520.44
2022-11-05T19:16:59.082Z,96517.84
2022-11-05T19:19:26.101Z,96515.38
2022-11-05T19:21:52.462Z,96519.66
2022-11-05T19:24:19.005Z,96518.75
2022-11-05T19:26:46.534Z,96515.47
2022-11-05T19:29:12.844Z,96520.41
2022-11-05T19:31:39.158Z,96516.81
2022-11-05T19:34:05.954Z,96526.56
2022-11-05T19:36:33.195Z,96529.56
2022-11-05T19:39:08.623Z,96523.81
2022-11-05T19:41:35.282Z,96526.13
2022-11-05T19:44:02.023Z,96539.97
2022-11-05T19:46:30.913Z,96542.06
2022-11-05T19:48:58.986Z,96545.84
2022-11-05T19:51:27.580Z,96545.19
2022-11-05T19:53:55.104Z,96552.41
2022-11-05T19:56:23.794Z,96548.78
2022-11-05T19:58:50.987Z,96552.59
2022-11-05T20:01:18.575Z,96549.44
2022-11-05T20:03:45.719Z,96541.56
2022-11-05T20:06:21.611Z,96553.03
2022-11-05T20:09:15.368Z,96560.88
2022-11-05T20:11:39.863Z,96564.81
2022-11-05T20:14:08.092Z,96564.50
2022-11-05T20:16:39.903Z,96567.91
2022-11-05T20:19:09.366Z,96566.72
2022-11-05T20:21:35.835Z,96573.53
2022-11-05T20:24:02.423Z,96579.41
2022-11-05T20:26:29.817Z,96580.50
2022-11-05T20:28:56.377Z,96575.56
2022-11-05T20:31:22.965Z,96576.78
2022-11-05T20:33:49.881Z,96568.22
2022-11-05T20:36:22.054Z,96568.03
2022-11-05T20:38:55.677Z,96562.59
2022-11-05T20:41:22.164Z,96577.13
2022-11-05T20:43:48.978Z,96578.09
2022-11-05T20:46:17.908Z,96581.41
2022-11-05T20:48:44.741Z,96586.09
2022-11-05T20:51:17.084Z,96591.50
2022-11-05T20:53:43.981Z,96593.59
2022-11-05T20:56:19.322Z,96599.00
2022-11-05T20:58:46.321Z,96602.38
2022-11-05T21:01:13.809Z,96590.63
2022-11-05T21:03:40.687Z,96592.59
2022-11-05T21:06:07.581Z,96589.88
2022-11-05T21:08:34.473Z,96590.91
2022-11-05T21:11:00.875Z,96601.25
2022-11-05T21:13:28.209Z,96594.38
2022-11-05T21:15:57.013Z,96598.13
2022-11-05T21:18:25.590Z,96598.75
2022-11-05T21:20:52.484Z,96598.03
2022-11-05T21:23:19.484Z,96593.56
2022-11-05T21:25:46.584Z,96602.38
2022-11-05T21:28:14.896Z,96595.94
2022-11-05T21:30:45.472Z,96598.25
2022-11-05T21:33:13.433Z,96601.22
2022-11-05T21:35:41.513Z,96603.84
2022-11-05T21:38:07.873Z,96604.41
2022-11-05T21:40:34.712Z,96596.97
2022-11-05T21:43:01.022Z,96591.16
2022-11-05T21:45:27.551Z,96589.44
2022-11-05T21:47:54.310Z,96594.31
2022-11-05T21:50:40.619Z,96594.75
2022-11-05T21:53:31.950Z,96595.75
2022-11-05T21:56:17.232Z,96591.41
2022-11-05T21:59:02.514Z,96597.56
2022-11-05T22:01:29.061Z,96592.31
2022-11-05T22:04:00.313Z,96591.34
2022-11-05T22:06:29.583Z,96578.75
2022-11-05T22:08:55.898Z,96588.84
2022-11-05T22:11:22.209Z,96584.06
2022-11-05T22:13:48.958Z,96578.16
2022-11-05T22:16:15.316Z,96571.41
2022-11-05T22:18:41.640Z,96573.28
2022-11-05T22:21:08.383Z,96564.84
2022-11-05T22:23:34.683Z,96563.50
2022-11-05T22:26:01.752Z,96572.69
2022-11-05T22:28:28.625Z,96570.06
2022-11-05T22:30:55.565Z,96570.94
2022-11-05T22:33:21.887Z,96579.25
2022-11-05T22:35:48.600Z,96578.41
2022-11-05T22:38:15.490Z,96575.13
2022-11-05T22:40:41.857Z,96575.13
2022-11-05T22:43:08.523Z,96579.53
2022-11-05T22:45:36.373Z,96574.06
2022-11-05T22:48:06.717Z,96567.47
2022-11-05T22:50:33.858Z,96566.81
2022-11-05T22:53:00.176Z,96565.53
2022-11-05T22:55:26.495Z,96566.59
2022-11-05T22:57:53.221Z,96572.78
2022-11-05T23:00:19.611Z,96559.94
2022-11-05T23:02:46.113Z,96562.94
2022-11-05T23:05:13.183Z,96569.00
2022-11-05T23:07:57.904Z,96566.38
2022-11-05T23:10:42.881Z,96561.75
2022-11-05T23:13:09.226Z,96560.97
2022-11-05T23:15:54.566Z,96550.63
2022-11-05T23:18:39.385Z,96552.78
2022-11-05T23:21:25.249Z,96556.13
2022-11-05T23:24:06.422Z,96556.91
2022-11-05T23:26:50.467Z,96552.00
2022-11-05T23:29:22.571Z,96560.13
2022-11-05T23:32:08.612Z,96555.56
2022-11-05T23:34:35.092Z,96557.59
2022-11-05T23:37:20.501Z,96559.06
2022-11-05T23:39:47.179Z,96552.41
2022-11-05T23:42:31.869Z,96548.97
2022-11-05T23:45:17.127Z,96550.59
2022-11-05T23:48:01.764Z,96547.91
2022-11-05T23:50:32.228Z,96545.31
2022-11-05T23:53:02.126Z,96552.06
2022-11-05T23:55:30.591Z,96548.38
2022-11-05T23:57:56.902Z,96554.94
